sensor_id;sensor_type;location;lat;lon;timestamp;P1;durP1;ratioP1;P2;durP2;ratioP2
30998;SDS011;20549;50.042;8.968;2022-12-07T00:00:11;6.53;;;5.83;;
30998;SDS011;20549;50.042;8.968;2022-12-07T00:02:37;6.80;;;5.90;;
30998;SDS011;20549;50.042;8.968;2022-12-07T00:05:04;6.17;;;5.33;;
30998;SDS011;20549;50.042;8.968;2022-12-07T00:07:31;7.40;;;5.97;;
30998;SDS011;20549;50.042;8.968;2022-12-07T00:09:57;6.30;;;5.57;;
30998;SDS011;20549;50.042;8.968;2022-12-07T00:12:24;7.33;;;6.10;;
30998;SDS011;20549;50.042;8.968;2022-12-07T00:14:50;6.17;;;5.27;;
30998;SDS011;20549;50.042;8.968;2022-12-07T00:17:17;6.17;;;5.50;;
30998;SDS011;20549;50.042;8.968;2022-12-07T00:19:43;6.23;;;5.60;;
30998;SDS011;20549;50.042;8.968;2022-12-07T00:22:10;6.17;;;5.57;;
30998;SDS011;20549;50.042;8.968;2022-12-07T00:24:37;6.57;;;5.80;;
30998;SDS011;20549;50.042;8.968;2022-12-07T00:27:03;5.90;;;5.30;;
30998;SDS011;20549;50.042;8.968;2022-12-07T00:29:30;6.60;;;5.57;;
30998;SDS011;20549;50.042;8.968;2022-12-07T00:31:56;6.87;;;6.10;;
30998;SDS011;20549;50.042;8.968;2022-12-07T00:34:23;7.00;;;6.03;;
30998;SDS011;20549;50.042;8.968;2022-12-07T00:36:50;7.60;;;6.03;;
30998;SDS011;20549;50.042;8.968;2022-12-07T00:39:16;9.00;;;5.70;;
30998;SDS011;20549;50.042;8.968;2022-12-07T00:41:43;6.93;;;6.07;;
30998;SDS011;20549;50.042;8.968;2022-12-07T00:44:09;7.40;;;5.97;;
30998;SDS011;20549;50.042;8.968;2022-12-07T00:46:36;6.80;;;5.90;;
30998;SDS011;20549;50.042;8.968;2022-12-07T00:49:03;7.60;;;6.77;;
30998;SDS011;20549;50.042;8.968;2022-12-07T00:51:29;7.00;;;6.03;;
30998;SDS011;20549;50.042;8.968;2022-12-07T00:53:56;7.50;;;6.70;;
30998;SDS011;20549;50.042;8.968;2022-12-07T00:56:23;7.10;;;6.40;;
30998;SDS011;20549;50.042;8.968;2022-12-07T00:58:50;8.13;;;6.70;;
30998;SDS011;20549;50.042;8.968;2022-12-07T01:01:25;8.10;;;6.50;;
30998;SDS011;20549;50.042;8.968;2022-12-07T01:03:51;8.30;;;6.30;;
30998;SDS011;20549;50.042;8.968;2022-12-07T01:06:18;7.80;;;7.00;;
30998;SDS011;20549;50.042;8.968;2022-12-07T01:08:44;7.87;;;6.43;;
30998;SDS011;20549;50.042;8.968;2022-12-07T01:11:15;9.10;;;6.37;;
30998;SDS011;20549;50.042;8.968;2022-12-07T01:13:37;7.27;;;6.40;;
30998;SDS011;20549;50.042;8.968;2022-12-07T01:16:05;7.03;;;6.33;;
30998;SDS011;20549;50.042;8.968;2022-12-07T01:18:31;8.73;;;6.80;;
30998;SDS011;20549;50.042;8.968;2022-12-07T01:21:00;6.43;;;5.37;;
30998;SDS011;20549;50.042;8.968;2022-12-07T01:23:26;7.43;;;6.63;;
30998;SDS011;20549;50.042;8.968;2022-12-07T01:25:56;9.03;;;6.90;;
30998;SDS011;20549;50.042;8.968;2022-12-07T01:28:23;6.83;;;6.13;;
30998;SDS011;20549;50.042;8.968;2022-12-07T01:31:12;8.30;;;6.90;;
30998;SDS011;20549;50.042;8.968;2022-12-07T01:33:26;6.80;;;5.80;;
30998;SDS011;20549;50.042;8.968;2022-12-07T01:35:54;8.50;;;6.27;;
30998;SDS011;20549;50.042;8.968;2022-12-07T01:38:21;6.80;;;6.20;;
30998;SDS011;20549;50.042;8.968;2022-12-07T01:40:53;7.30;;;6.43;;
30998;SDS011;20549;50.042;8.968;2022-12-07T01:43:17;7.57;;;6.53;;
30998;SDS011;20549;50.042;8.968;2022-12-07T01:45:43;6.77;;;6.10;;
30998;SDS011;20549;50.042;8.968;2022-12-07T01:48:10;6.80;;;6.10;;
30998;SDS011;20549;50.042;8.968;2022-12-07T01:50:36;7.97;;;6.43;;
30998;SDS011;20549;50.042;8.968;2022-12-07T01:53:03;7.03;;;6.13;;
30998;SDS011;20549;50.042;8.968;2022-12-07T01:55:30;7.50;;;6.70;;
30998;SDS011;20549;50.042;8.968;2022-12-07T01:57:56;10.00;;;6.80;;
30998;SDS011;20549;50.042;8.968;2022-12-07T02:00:23;7.67;;;6.50;;
30998;SDS011;20549;50.042;8.968;2022-12-07T02:02:59;7.90;;;7.10;;
30998;SDS011;20549;50.042;8.968;2022-12-07T02:05:31;7.70;;;6.90;;
30998;SDS011;20549;50.042;8.968;2022-12-07T02:07:57;8.37;;;6.97;;
30998;SDS011;20549;50.042;8.968;2022-12-07T02:10:27;7.70;;;6.93;;
30998;SDS011;20549;50.042;8.968;2022-12-07T02:12:55;8.97;;;6.90;;
30998;SDS011;20549;50.042;8.968;2022-12-07T02:15:18;7.43;;;6.37;;
30998;SDS011;20549;50.042;8.968;2022-12-07T02:23:10;7.63;;;6.83;;
30998;SDS011;20549;50.042;8.968;2022-12-07T02:25:35;7.93;;;6.53;;
30998;SDS011;20549;50.042;8.968;2022-12-07T02:28:07;7.67;;;6.87;;
30998;SDS011;20549;50.042;8.968;2022-12-07T02:30:33;7.10;;;6.33;;
30998;SDS011;20549;50.042;8.968;2022-12-07T02:33:03;8.53;;;6.93;;
30998;SDS011;20549;50.042;8.968;2022-12-07T02:35:41;9.83;;;6.93;;
30998;SDS011;20549;50.042;8.968;2022-12-07T02:38:17;8.83;;;7.30;;
30998;SDS011;20549;50.042;8.968;2022-12-07T02:41:00;7.50;;;6.53;;
30998;SDS011;20549;50.042;8.968;2022-12-07T02:43:25;7.73;;;6.33;;
30998;SDS011;20549;50.042;8.968;2022-12-07T02:45:51;8.40;;;6.83;;
30998;SDS011;20549;50.042;8.968;2022-12-07T02:48:17;9.77;;;7.10;;
30998;SDS011;20549;50.042;8.968;2022-12-07T02:50:45;8.13;;;6.50;;
30998;SDS011;20549;50.042;8.968;2022-12-07T02:56:03;8.53;;;6.53;;
30998;SDS011;20549;50.042;8.968;2022-12-07T02:58:32;7.70;;;6.73;;
30998;SDS011;20549;50.042;8.968;2022-12-07T03:03:29;7.87;;;6.67;;
30998;SDS011;20549;50.042;8.968;2022-12-07T03:06:01;8.80;;;6.80;;
30998;SDS011;20549;50.042;8.968;2022-12-07T03:08:31;8.33;;;6.30;;
30998;SDS011;20549;50.042;8.968;2022-12-07T03:11:03;8.47;;;6.73;;
30998;SDS011;20549;50.042;8.968;2022-12-07T03:13:33;7.50;;;6.67;;
30998;SDS011;20549;50.042;8.968;2022-12-07T03:16:08;7.70;;;6.50;;
30998;SDS011;20549;50.042;8.968;2022-12-07T03:18:39;7.10;;;6.33;;
30998;SDS011;20549;50.042;8.968;2022-12-07T03:21:23;7.47;;;6.40;;
30998;SDS011;20549;50.042;8.968;2022-12-07T03:23:47;7.00;;;6.23;;
30998;SDS011;20549;50.042;8.968;2022-12-07T03:26:13;7.20;;;5.93;;
30998;SDS011;20549;50.042;8.968;2022-12-07T03:28:40;7.40;;;6.30;;
30998;SDS011;20549;50.042;8.968;2022-12-07T03:31:16;9.27;;;7.03;;
30998;SDS011;20549;50.042;8.968;2022-12-07T03:33:44;8.07;;;6.40;;
30998;SDS011;20549;50.042;8.968;2022-12-07T03:36:19;7.47;;;6.33;;
30998;SDS011;20549;50.042;8.968;2022-12-07T03:38:51;8.37;;;6.67;;
30998;SDS011;20549;50.042;8.968;2022-12-07T03:41:24;10.43;;;7.33;;
30998;SDS011;20549;50.042;8.968;2022-12-07T03:43:45;8.97;;;6.97;;
30998;SDS011;20549;50.042;8.968;2022-12-07T03:46:26;7.97;;;6.23;;
30998;SDS011;20549;50.042;8.968;2022-12-07T03:48:59;7.73;;;6.17;;
30998;SDS011;20549;50.042;8.968;2022-12-07T03:51:55;9.10;;;6.73;;
30998;SDS011;20549;50.042;8.968;2022-12-07T03:54:33;6.73;;;6.03;;
30998;SDS011;20549;50.042;8.968;2022-12-07T03:56:58;7.17;;;6.23;;
30998;SDS011;20549;50.042;8.968;2022-12-07T03:59:25;7.03;;;6.03;;
30998;SDS011;20549;50.042;8.968;2022-12-07T04:01:53;7.10;;;6.03;;
30998;SDS011;20549;50.042;8.968;2022-12-07T04:04:18;6.27;;;5.53;;
30998;SDS011;20549;50.042;8.968;2022-12-07T04:06:45;6.20;;;5.50;;
30998;SDS011;20549;50.042;8.968;2022-12-07T04:09:11;8.50;;;6.17;;
30998;SDS011;20549;50.042;8.968;2022-12-07T04:11:38;7.17;;;6.10;;
30998;SDS011;20549;50.042;8.968;2022-12-07T04:14:05;7.47;;;6.33;;
30998;SDS011;20549;50.042;8.968;2022-12-07T04:16:47;8.37;;;6.50;;
30998;SDS011;20549;50.042;8.968;2022-12-07T04:19:26;7.40;;;6.60;;
30998;SDS011;20549;50.042;8.968;2022-12-07T04:21:51;8.27;;;6.50;;
30998;SDS011;20549;50.042;8.968;2022-12-07T04:24:18;7.60;;;5.83;;
30998;SDS011;20549;50.042;8.968;2022-12-07T04:26:45;7.53;;;5.83;;
30998;SDS011;20549;50.042;8.968;2022-12-07T04:29:11;7.40;;;5.90;;
30998;SDS011;20549;50.042;8.968;2022-12-07T04:31:37;5.97;;;5.37;;
30998;SDS011;20549;50.042;8.968;2022-12-07T04:34:04;5.87;;;5.20;;
30998;SDS011;20549;50.042;8.968;2022-12-07T04:36:31;7.00;;;5.57;;
30998;SDS011;20549;50.042;8.968;2022-12-07T04:38:57;6.30;;;5.70;;
30998;SDS011;20549;50.042;8.968;2022-12-07T04:41:24;5.70;;;5.00;;
30998;SDS011;20549;50.042;8.968;2022-12-07T04:43:56;6.97;;;5.40;;
30998;SDS011;20549;50.042;8.968;2022-12-07T04:46:22;7.07;;;5.43;;
30998;SDS011;20549;50.042;8.968;2022-12-07T04:48:49;6.27;;;5.33;;
30998;SDS011;20549;50.042;8.968;2022-12-07T04:51:22;5.87;;;5.03;;
30998;SDS011;20549;50.042;8.968;2022-12-07T04:53:47;5.63;;;5.03;;
30998;SDS011;20549;50.042;8.968;2022-12-07T04:56:14;6.83;;;5.33;;
30998;SDS011;20549;50.042;8.968;2022-12-07T04:58:41;6.13;;;5.37;;
30998;SDS011;20549;50.042;8.968;2022-12-07T05:01:07;5.47;;;4.97;;
30998;SDS011;20549;50.042;8.968;2022-12-07T05:03:34;5.73;;;5.00;;
30998;SDS011;20549;50.042;8.968;2022-12-07T05:06:00;5.67;;;4.67;;
30998;SDS011;20549;50.042;8.968;2022-12-07T05:08:27;5.33;;;4.77;;
30998;SDS011;20549;50.042;8.968;2022-12-07T05:10:53;7.20;;;4.80;;
30998;SDS011;20549;50.042;8.968;2022-12-07T05:13:20;6.27;;;4.40;;
30998;SDS011;20549;50.042;8.968;2022-12-07T05:15:47;5.47;;;4.97;;
30998;SDS011;20549;50.042;8.968;2022-12-07T05:18:13;5.77;;;4.77;;
30998;SDS011;20549;50.042;8.968;2022-12-07T05:20:40;5.53;;;4.77;;
30998;SDS011;20549;50.042;8.968;2022-12-07T05:23:06;5.60;;;4.77;;
30998;SDS011;20549;50.042;8.968;2022-12-07T05:25:33;5.17;;;4.60;;
30998;SDS011;20549;50.042;8.968;2022-12-07T05:27:59;5.60;;;4.67;;
30998;SDS011;20549;50.042;8.968;2022-12-07T05:30:26;6.50;;;4.93;;
30998;SDS011;20549;50.042;8.968;2022-12-07T05:32:53;5.60;;;4.53;;
30998;SDS011;20549;50.042;8.968;2022-12-07T05:35:19;4.43;;;4.03;;
30998;SDS011;20549;50.042;8.968;2022-12-07T05:37:46;5.13;;;4.63;;
30998;SDS011;20549;50.042;8.968;2022-12-07T05:40:12;6.30;;;4.70;;
30998;SDS011;20549;50.042;8.968;2022-12-07T05:42:39;4.60;;;4.07;;
30998;SDS011;20549;50.042;8.968;2022-12-07T05:45:06;5.87;;;5.03;;
30998;SDS011;20549;50.042;8.968;2022-12-07T05:47:32;6.23;;;4.90;;
30998;SDS011;20549;50.042;8.968;2022-12-07T05:49:59;5.87;;;4.43;;
30998;SDS011;20549;50.042;8.968;2022-12-07T05:52:25;5.70;;;4.60;;
30998;SDS011;20549;50.042;8.968;2022-12-07T05:54:52;4.93;;;4.37;;
30998;SDS011;20549;50.042;8.968;2022-12-07T05:57:18;6.43;;;4.70;;
30998;SDS011;20549;50.042;8.968;2022-12-07T05:59:45;4.83;;;4.20;;
30998;SDS011;20549;50.042;8.968;2022-12-07T06:02:12;5.67;;;4.83;;
30998;SDS011;20549;50.042;8.968;2022-12-07T06:04:40;6.13;;;5.23;;
30998;SDS011;20549;50.042;8.968;2022-12-07T06:07:05;7.00;;;5.30;;
30998;SDS011;20549;50.042;8.968;2022-12-07T06:09:31;5.13;;;4.63;;
30998;SDS011;20549;50.042;8.968;2022-12-07T06:11:58;8.67;;;5.50;;
30998;SDS011;20549;50.042;8.968;2022-12-07T06:14:43;5.47;;;4.70;;
30998;SDS011;20549;50.042;8.968;2022-12-07T06:17:10;5.20;;;4.70;;
30998;SDS011;20549;50.042;8.968;2022-12-07T06:19:36;6.37;;;5.37;;
30998;SDS011;20549;50.042;8.968;2022-12-07T06:22:03;5.63;;;4.80;;
30998;SDS011;20549;50.042;8.968;2022-12-07T06:24:30;5.10;;;4.60;;
30998;SDS011;20549;50.042;8.968;2022-12-07T06:26:56;5.90;;;5.40;;
30998;SDS011;20549;50.042;8.968;2022-12-07T06:29:22;6.33;;;5.30;;
30998;SDS011;20549;50.042;8.968;2022-12-07T06:31:49;6.33;;;4.90;;
30998;SDS011;20549;50.042;8.968;2022-12-07T06:34:16;5.87;;;5.33;;
30998;SDS011;20549;50.042;8.968;2022-12-07T06:36:42;6.37;;;5.27;;
30998;SDS011;20549;50.042;8.968;2022-12-07T06:39:09;7.23;;;5.97;;
30998;SDS011;20549;50.042;8.968;2022-12-07T06:41:38;6.63;;;5.67;;
30998;SDS011;20549;50.042;8.968;2022-12-07T06:44:05;6.77;;;6.00;;
30998;SDS011;20549;50.042;8.968;2022-12-07T06:46:31;6.57;;;5.70;;
30998;SDS011;20549;50.042;8.968;2022-12-07T06:48:58;7.60;;;5.93;;
30998;SDS011;20549;50.042;8.968;2022-12-07T06:51:24;8.40;;;6.03;;
30998;SDS011;20549;50.042;8.968;2022-12-07T06:53:51;7.50;;;6.03;;
30998;SDS011;20549;50.042;8.968;2022-12-07T06:56:18;7.60;;;6.40;;
30998;SDS011;20549;50.042;8.968;2022-12-07T06:58:44;7.67;;;5.37;;
30998;SDS011;20549;50.042;8.968;2022-12-07T07:01:11;7.03;;;6.33;;
30998;SDS011;20549;50.042;8.968;2022-12-07T07:03:37;6.70;;;6.00;;
30998;SDS011;20549;50.042;8.968;2022-12-07T07:06:04;7.03;;;5.67;;
30998;SDS011;20549;50.042;8.968;2022-12-07T07:08:30;6.23;;;5.63;;
30998;SDS011;20549;50.042;8.968;2022-12-07T07:10:57;7.33;;;5.77;;
30998;SDS011;20549;50.042;8.968;2022-12-07T07:13:24;5.83;;;5.27;;
30998;SDS011;20549;50.042;8.968;2022-12-07T07:15:50;5.53;;;5.03;;
30998;SDS011;20549;50.042;8.968;2022-12-07T07:18:17;8.83;;;5.70;;
30998;SDS011;20549;50.042;8.968;2022-12-07T07:20:43;7.77;;;6.70;;
30998;SDS011;20549;50.042;8.968;2022-12-07T07:23:10;7.10;;;5.43;;
30998;SDS011;20549;50.042;8.968;2022-12-07T07:25:37;6.10;;;5.30;;
30998;SDS011;20549;50.042;8.968;2022-12-07T07:28:03;6.10;;;5.33;;
30998;SDS011;20549;50.042;8.968;2022-12-07T07:30:30;6.40;;;5.73;;
30998;SDS011;20549;50.042;8.968;2022-12-07T07:33:00;5.73;;;5.10;;
30998;SDS011;20549;50.042;8.968;2022-12-07T07:35:26;8.10;;;5.60;;
30998;SDS011;20549;50.042;8.968;2022-12-07T07:37:52;6.37;;;5.77;;
30998;SDS011;20549;50.042;8.968;2022-12-07T07:40:19;6.50;;;5.87;;
30998;SDS011;20549;50.042;8.968;2022-12-07T07:42:52;7.30;;;6.27;;
30998;SDS011;20549;50.042;8.968;2022-12-07T07:45:21;8.43;;;6.20;;
30998;SDS011;20549;50.042;8.968;2022-12-07T07:47:45;7.03;;;5.93;;
30998;SDS011;20549;50.042;8.968;2022-12-07T07:50:11;6.73;;;6.07;;
30998;SDS011;20549;50.042;8.968;2022-12-07T07:52:38;6.37;;;5.77;;
30998;SDS011;20549;50.042;8.968;2022-12-07T07:55:04;7.07;;;6.00;;
30998;SDS011;20549;50.042;8.968;2022-12-07T07:57:31;9.07;;;6.57;;
30998;SDS011;20549;50.042;8.968;2022-12-07T07:59:58;7.47;;;6.13;;
30998;SDS011;20549;50.042;8.968;2022-12-07T08:02:24;6.60;;;5.73;;
30998;SDS011;20549;50.042;8.968;2022-12-07T08:04:51;7.87;;;5.83;;
30998;SDS011;20549;50.042;8.968;2022-12-07T08:07:17;8.07;;;6.27;;
30998;SDS011;20549;50.042;8.968;2022-12-07T08:09:44;6.97;;;6.27;;
30998;SDS011;20549;50.042;8.968;2022-12-07T08:12:11;8.00;;;6.30;;
30998;SDS011;20549;50.042;8.968;2022-12-07T08:14:37;8.43;;;6.60;;
30998;SDS011;20549;50.042;8.968;2022-12-07T08:17:04;9.73;;;6.33;;
30998;SDS011;20549;50.042;8.968;2022-12-07T08:19:30;7.43;;;5.80;;
30998;SDS011;20549;50.042;8.968;2022-12-07T08:21:57;10.33;;;6.33;;
30998;SDS011;20549;50.042;8.968;2022-12-07T08:24:23;7.80;;;6.30;;
30998;SDS011;20549;50.042;8.968;2022-12-07T08:26:50;7.67;;;5.93;;
30998;SDS011;20549;50.042;8.968;2022-12-07T08:29:17;7.83;;;6.97;;
30998;SDS011;20549;50.042;8.968;2022-12-07T08:31:43;7.20;;;6.13;;
30998;SDS011;20549;50.042;8.968;2022-12-07T08:34:10;7.13;;;6.43;;
30998;SDS011;20549;50.042;8.968;2022-12-07T08:36:36;7.67;;;6.77;;
30998;SDS011;20549;50.042;8.968;2022-12-07T08:39:03;8.43;;;6.37;;
30998;SDS011;20549;50.042;8.968;2022-12-07T08:41:30;7.20;;;6.50;;
30998;SDS011;20549;50.042;8.968;2022-12-07T08:43:56;7.93;;;6.57;;
30998;SDS011;20549;50.042;8.968;2022-12-07T08:46:24;6.90;;;6.20;;
30998;SDS011;20549;50.042;8.968;2022-12-07T08:48:52;7.37;;;5.80;;
30998;SDS011;20549;50.042;8.968;2022-12-07T08:51:16;7.70;;;6.70;;
30998;SDS011;20549;50.042;8.968;2022-12-07T08:53:42;8.90;;;7.10;;
30998;SDS011;20549;50.042;8.968;2022-12-07T08:56:09;7.23;;;5.90;;
30998;SDS011;20549;50.042;8.968;2022-12-07T08:58:36;6.90;;;6.20;;
30998;SDS011;20549;50.042;8.968;2022-12-07T09:01:02;7.40;;;6.40;;
30998;SDS011;20549;50.042;8.968;2022-12-07T09:03:29;7.27;;;6.40;;
30998;SDS011;20549;50.042;8.968;2022-12-07T09:05:55;6.27;;;5.60;;
30998;SDS011;20549;50.042;8.968;2022-12-07T09:08:22;6.57;;;5.93;;
30998;SDS011;20549;50.042;8.968;2022-12-07T09:10:49;7.43;;;5.97;;
30998;SDS011;20549;50.042;8.968;2022-12-07T09:13:15;7.13;;;6.37;;
30998;SDS011;20549;50.042;8.968;2022-12-07T09:15:42;7.77;;;5.70;;
30998;SDS011;20549;50.042;8.968;2022-12-07T09:18:08;7.10;;;6.40;;
30998;SDS011;20549;50.042;8.968;2022-12-07T09:20:35;8.00;;;6.37;;
30998;SDS011;20549;50.042;8.968;2022-12-07T09:23:02;9.13;;;5.37;;
30998;SDS011;20549;50.042;8.968;2022-12-07T09:25:28;8.13;;;5.90;;
30998;SDS011;20549;50.042;8.968;2022-12-07T09:27:55;7.17;;;6.13;;
30998;SDS011;20549;50.042;8.968;2022-12-07T09:30:21;7.77;;;6.30;;
30998;SDS011;20549;50.042;8.968;2022-12-07T09:32:48;6.57;;;5.87;;
30998;SDS011;20549;50.042;8.968;2022-12-07T09:35:14;7.03;;;5.80;;
30998;SDS011;20549;50.042;8.968;2022-12-07T09:37:41;7.43;;;6.27;;
30998;SDS011;20549;50.042;8.968;2022-12-07T09:40:08;7.80;;;6.50;;
30998;SDS011;20549;50.042;8.968;2022-12-07T09:42:35;8.27;;;6.57;;
30998;SDS011;20549;50.042;8.968;2022-12-07T09:45:07;8.53;;;6.83;;
30998;SDS011;20549;50.042;8.968;2022-12-07T09:47:33;6.17;;;5.53;;
30998;SDS011;20549;50.042;8.968;2022-12-07T09:50:03;7.40;;;6.13;;
30998;SDS011;20549;50.042;8.968;2022-12-07T09:52:26;7.40;;;6.00;;
30998;SDS011;20549;50.042;8.968;2022-12-07T09:54:52;7.13;;;6.00;;
30998;SDS011;20549;50.042;8.968;2022-12-07T09:57:20;6.90;;;5.93;;
30998;SDS011;20549;50.042;8.968;2022-12-07T09:59:48;6.23;;;5.50;;
30998;SDS011;20549;50.042;8.968;2022-12-07T10:02:34;10.23;;;6.13;;
30998;SDS011;20549;50.042;8.968;2022-12-07T10:05:03;7.43;;;6.30;;
30998;SDS011;20549;50.042;8.968;2022-12-07T10:07:31;7.27;;;6.37;;
30998;SDS011;20549;50.042;8.968;2022-12-07T10:09:58;8.47;;;6.47;;
30998;SDS011;20549;50.042;8.968;2022-12-07T10:12:24;7.23;;;6.33;;
30998;SDS011;20549;50.042;8.968;2022-12-07T10:15:01;7.53;;;6.70;;
30998;SDS011;20549;50.042;8.968;2022-12-07T10:17:31;7.13;;;6.03;;
30998;SDS011;20549;50.042;8.968;2022-12-07T10:20:11;7.63;;;6.07;;
30998;SDS011;20549;50.042;8.968;2022-12-07T10:22:34;7.83;;;6.23;;
30998;SDS011;20549;50.042;8.968;2022-12-07T10:25:08;7.93;;;5.90;;
30998;SDS011;20549;50.042;8.968;2022-12-07T10:27:31;8.17;;;6.20;;
30998;SDS011;20549;50.042;8.968;2022-12-07T10:29:57;7.23;;;6.37;;
30998;SDS011;20549;50.042;8.968;2022-12-07T10:35:15;8.40;;;6.23;;
30998;SDS011;20549;50.042;8.968;2022-12-07T10:37:19;7.87;;;5.93;;
30998;SDS011;20549;50.042;8.968;2022-12-07T10:39:46;6.20;;;5.60;;
30998;SDS011;20549;50.042;8.968;2022-12-07T10:42:19;6.27;;;5.13;;
30998;SDS011;20549;50.042;8.968;2022-12-07T10:44:48;6.83;;;5.23;;
30998;SDS011;20549;50.042;8.968;2022-12-07T10:52:35;5.87;;;5.37;;
30998;SDS011;20549;50.042;8.968;2022-12-07T10:57:40;7.43;;;5.70;;
30998;SDS011;20549;50.042;8.968;2022-12-07T11:11:19;5.87;;;5.30;;
30998;SDS011;20549;50.042;8.968;2022-12-07T11:13:52;7.43;;;5.83;;
30998;SDS011;20549;50.042;8.968;2022-12-07T11:19:16;7.00;;;5.33;;
30998;SDS011;20549;50.042;8.968;2022-12-07T11:22:06;5.23;;;4.70;;
30998;SDS011;20549;50.042;8.968;2022-12-07T11:24:32;5.57;;;4.60;;
30998;SDS011;20549;50.042;8.968;2022-12-07T11:27:14;5.30;;;4.80;;
30998;SDS011;20549;50.042;8.968;2022-12-07T11:37:48;5.00;;;4.50;;
30998;SDS011;20549;50.042;8.968;2022-12-07T11:40:19;5.30;;;4.70;;
30998;SDS011;20549;50.042;8.968;2022-12-07T11:42:42;4.97;;;3.97;;
30998;SDS011;20549;50.042;8.968;2022-12-07T11:47:58;2.90;;;2.57;;
30998;SDS011;20549;50.042;8.968;2022-12-07T11:55:29;3.07;;;2.70;;
30998;SDS011;20549;50.042;8.968;2022-12-07T11:58:14;2.67;;;2.20;;
30998;SDS011;20549;50.042;8.968;2022-12-07T12:01:01;4.10;;;2.50;;
30998;SDS011;20549;50.042;8.968;2022-12-07T12:03:28;2.80;;;2.60;;
30998;SDS011;20549;50.042;8.968;2022-12-07T12:05:52;3.27;;;2.53;;
30998;SDS011;20549;50.042;8.968;2022-12-07T12:08:21;4.47;;;2.53;;
30998;SDS011;20549;50.042;8.968;2022-12-07T12:11:00;2.33;;;2.13;;
30998;SDS011;20549;50.042;8.968;2022-12-07T12:16:39;2.60;;;2.40;;
30998;SDS011;20549;50.042;8.968;2022-12-07T12:19:22;3.30;;;2.87;;
30998;SDS011;20549;50.042;8.968;2022-12-07T12:21:52;4.87;;;3.30;;
30998;SDS011;20549;50.042;8.968;2022-12-07T12:24:17;6.50;;;3.40;;
30998;SDS011;20549;50.042;8.968;2022-12-07T12:26:48;5.23;;;3.70;;
30998;SDS011;20549;50.042;8.968;2022-12-07T12:29:23;4.20;;;3.80;;
30998;SDS011;20549;50.042;8.968;2022-12-07T12:32:07;6.07;;;3.53;;
30998;SDS011;20549;50.042;8.968;2022-12-07T12:34:38;3.73;;;3.43;;
30998;SDS011;20549;50.042;8.968;2022-12-07T12:36:59;4.87;;;4.23;;
30998;SDS011;20549;50.042;8.968;2022-12-07T12:39:26;7.90;;;4.33;;
30998;SDS011;20549;50.042;8.968;2022-12-07T12:41:53;4.23;;;3.40;;
30998;SDS011;20549;50.042;8.968;2022-12-07T12:46:58;6.90;;;3.90;;
30998;SDS011;20549;50.042;8.968;2022-12-07T12:51:55;4.97;;;4.07;;
30998;SDS011;20549;50.042;8.968;2022-12-07T12:54:24;3.97;;;3.47;;
30998;SDS011;20549;50.042;8.968;2022-12-07T13:05:17;3.97;;;3.50;;
30998;SDS011;20549;50.042;8.968;2022-12-07T13:12:57;4.83;;;3.40;;
30998;SDS011;20549;50.042;8.968;2022-12-07T13:15:32;3.63;;;3.07;;
30998;SDS011;20549;50.042;8.968;2022-12-07T13:17:59;3.80;;;3.43;;
30998;SDS011;20549;50.042;8.968;2022-12-07T13:20:46;5.20;;;3.17;;
30998;SDS011;20549;50.042;8.968;2022-12-07T13:23:09;3.40;;;3.10;;
30998;SDS011;20549;50.042;8.968;2022-12-07T13:25:38;4.80;;;3.67;;
30998;SDS011;20549;50.042;8.968;2022-12-07T13:28:11;3.73;;;3.27;;
30998;SDS011;20549;50.042;8.968;2022-12-07T13:33:20;4.33;;;3.20;;
30998;SDS011;20549;50.042;8.968;2022-12-07T13:35:46;5.00;;;3.43;;
30998;SDS011;20549;50.042;8.968;2022-12-07T13:38:23;3.57;;;2.93;;
30998;SDS011;20549;50.042;8.968;2022-12-07T13:41:10;3.57;;;2.80;;
30998;SDS011;20549;50.042;8.968;2022-12-07T13:43:43;4.43;;;2.80;;
30998;SDS011;20549;50.042;8.968;2022-12-07T13:46:12;3.83;;;3.00;;
30998;SDS011;20549;50.042;8.968;2022-12-07T13:48:46;3.70;;;3.33;;
30998;SDS011;20549;50.042;8.968;2022-12-07T13:51:26;3.40;;;3.03;;
30998;SDS011;20549;50.042;8.968;2022-12-07T13:53:57;3.90;;;2.70;;
30998;SDS011;20549;50.042;8.968;2022-12-07T13:56:22;3.20;;;2.87;;
30998;SDS011;20549;50.042;8.968;2022-12-07T13:58:48;2.87;;;2.67;;
30998;SDS011;20549;50.042;8.968;2022-12-07T14:01:15;3.10;;;2.80;;
30998;SDS011;20549;50.042;8.968;2022-12-07T14:03:41;4.87;;;3.40;;
30998;SDS011;20549;50.042;8.968;2022-12-07T14:06:19;4.30;;;3.10;;
30998;SDS011;20549;50.042;8.968;2022-12-07T14:08:44;4.43;;;2.87;;
30998;SDS011;20549;50.042;8.968;2022-12-07T14:11:17;6.77;;;4.30;;
30998;SDS011;20549;50.042;8.968;2022-12-07T14:13:55;5.87;;;3.90;;
30998;SDS011;20549;50.042;8.968;2022-12-07T14:16:28;12.50;;;7.93;;
30998;SDS011;20549;50.042;8.968;2022-12-07T14:18:54;13.30;;;8.10;;
30998;SDS011;20549;50.042;8.968;2022-12-07T14:21:22;12.10;;;7.13;;
30998;SDS011;20549;50.042;8.968;2022-12-07T14:23:54;7.00;;;4.37;;
30998;SDS011;20549;50.042;8.968;2022-12-07T14:26:14;8.23;;;3.93;;
30998;SDS011;20549;50.042;8.968;2022-12-07T14:28:40;5.40;;;3.50;;
30998;SDS011;20549;50.042;8.968;2022-12-07T14:31:10;5.30;;;3.20;;
30998;SDS011;20549;50.042;8.968;2022-12-07T14:33:39;3.30;;;2.57;;
30998;SDS011;20549;50.042;8.968;2022-12-07T14:36:05;3.40;;;2.40;;
30998;SDS011;20549;50.042;8.968;2022-12-07T14:38:32;2.70;;;2.10;;
30998;SDS011;20549;50.042;8.968;2022-12-07T14:40:58;4.27;;;2.20;;
30998;SDS011;20549;50.042;8.968;2022-12-07T14:43:25;3.57;;;2.37;;
30998;SDS011;20549;50.042;8.968;2022-12-07T14:45:51;2.40;;;2.20;;
30998;SDS011;20549;50.042;8.968;2022-12-07T14:48:18;3.00;;;2.50;;
30998;SDS011;20549;50.042;8.968;2022-12-07T14:50:45;3.83;;;2.27;;
30998;SDS011;20549;50.042;8.968;2022-12-07T14:53:16;2.63;;;2.43;;
30998;SDS011;20549;50.042;8.968;2022-12-07T14:55:44;3.77;;;2.70;;
30998;SDS011;20549;50.042;8.968;2022-12-07T14:58:12;4.27;;;3.87;;
30998;SDS011;20549;50.042;8.968;2022-12-07T15:00:39;4.67;;;3.17;;
30998;SDS011;20549;50.042;8.968;2022-12-07T15:03:06;3.67;;;3.23;;
30998;SDS011;20549;50.042;8.968;2022-12-07T15:05:33;5.53;;;3.13;;
30998;SDS011;20549;50.042;8.968;2022-12-07T15:07:59;5.23;;;3.67;;
30998;SDS011;20549;50.042;8.968;2022-12-07T15:10:27;3.73;;;3.27;;
30998;SDS011;20549;50.042;8.968;2022-12-07T15:12:55;3.40;;;3.10;;
30998;SDS011;20549;50.042;8.968;2022-12-07T15:15:21;4.10;;;3.50;;
30998;SDS011;20549;50.042;8.968;2022-12-07T15:17:48;3.17;;;2.60;;
30998;SDS011;20549;50.042;8.968;2022-12-07T15:20:15;6.00;;;2.40;;
30998;SDS011;20549;50.042;8.968;2022-12-07T15:22:41;2.50;;;2.27;;
30998;SDS011;20549;50.042;8.968;2022-12-07T15:25:08;3.80;;;2.50;;
30998;SDS011;20549;50.042;8.968;2022-12-07T15:27:34;4.63;;;2.90;;
30998;SDS011;20549;50.042;8.968;2022-12-07T15:30:01;3.87;;;2.67;;
30998;SDS011;20549;50.042;8.968;2022-12-07T15:32:28;2.50;;;2.10;;
30998;SDS011;20549;50.042;8.968;2022-12-07T15:34:54;3.70;;;2.20;;
30998;SDS011;20549;50.042;8.968;2022-12-07T15:37:21;3.63;;;2.17;;
30998;SDS011;20549;50.042;8.968;2022-12-07T15:39:47;3.83;;;2.50;;
30998;SDS011;20549;50.042;8.968;2022-12-07T15:42:14;3.93;;;2.77;;
30998;SDS011;20549;50.042;8.968;2022-12-07T15:44:40;3.67;;;2.67;;
30998;SDS011;20549;50.042;8.968;2022-12-07T15:47:25;3.17;;;2.70;;
30998;SDS011;20549;50.042;8.968;2022-12-07T15:49:52;3.77;;;2.30;;
30998;SDS011;20549;50.042;8.968;2022-12-07T15:52:18;2.80;;;2.20;;
30998;SDS011;20549;50.042;8.968;2022-12-07T15:54:45;3.27;;;2.03;;
30998;SDS011;20549;50.042;8.968;2022-12-07T15:57:12;3.13;;;1.70;;
30998;SDS011;20549;50.042;8.968;2022-12-07T15:59:38;3.73;;;1.73;;
30998;SDS011;20549;50.042;8.968;2022-12-07T16:02:05;3.13;;;1.70;;
30998;SDS011;20549;50.042;8.968;2022-12-07T16:04:31;2.20;;;1.50;;
30998;SDS011;20549;50.042;8.968;2022-12-07T16:06:58;3.77;;;2.03;;
30998;SDS011;20549;50.042;8.968;2022-12-07T16:09:25;2.23;;;1.80;;